Irons, MI (49644)

5:31 AM EDT on September 15, 2014 (GMT -0400)
RAWS WELLSTON MI US | Change Station
CLOSE
Current Station
Personal Weather Station
Location: Wellston, MI
Elevation: 795 ft
Nearby Weather Stations

Elev 795 ft 44.22 °N, 85.94 °W | Updated 32 minutes ago

Overcast
Overcast
52 °F
Feels Like 52 °F
N
1
Wind Variable Wind from SSE
Gusts 4.0 mph

Today
High -- | Low -- °F
--% Chance of Precip.
Yesterday
High -- | Low -- °F
Precip. -- in
7:22 AM 7:54 PM
Waning Gibbous, 57% visible
Pressure 30.12 in
Visibility 10.0 miles
Clouds Few 2100 ft
Mostly Cloudy 7000 ft
Dew Point 51 °F
Humidity 98%
Rainfall 0.02 in
Snow Depth Not available.
UV 0 out of 12
Pollen 3.80 out of 12
Ozone Good
PM2.5 Good
Flu Activity Not available.
METAR KMBL 150915Z AUTO 10003KT 10SM FEW021 BKN070 12/10 A3012 RMK AO1

More Conditions Fewer Conditions

Pressure 30.12 in
Visibility 10.0 miles
Clouds Few 2100 ft
Mostly Cloudy 7000 ft
Dew Point 51 °F
Humidity 98%
Rainfall 0.02 in
Snow Depth Not available.
UV 0 out of 12
Pollen 3.80 out of 12
Ozone Good
PM2.5 Good
Flu Activity Not available.
METAR KMBL 150915Z AUTO 10003KT 10SM FEW021 BKN070 12/10 A3012 RMK AO1

More Conditions Fewer Conditions

10-Day Weather Forecast

Almanac

Astronomy

Sep. 15, 2014 Rise Set
Actual Time 7:22 AM EDT 7:54 PM EDT
Civil Twilight 6:53 AM EDT 8:23 PM EDT
Nautical Twilight 6:19 AM EDT 8:57 PM EDT
Astronomical Twilight 5:43 AM EDT 9:33 PM EDT
Moon No Moon Rise 2:35 PM EDT
Length of Visible Light 13h 29m
Length of Day
12h 31m
Tomorrow will be 3m 1s shorter.
Waning Gibbous, 57% of the Moon is Illuminated
Today
Waning Gibbous
Sep 15
Last Quarter
Sep 24
New
Oct 1
First Quarter
Oct 8
Full

Today's Extremes

State Highs State Lows

Community

WunderPhotos

Upload Photos

1,753,426 photos uploaded!

Nearby

Air Quality

  Air Quality AQ Index Pollutant
Yesterday Good
OZONE
Yesterday Good
PM2.5
Current Good
PM2.5
Current Good
OZONE
Monday Good
OZONE
Monday Good
PM2.5

Snow Depth

Station Depth Elevation
No new snow has been reported.

Earthquake Activity

City Distance Mag. Time & Date
No recent earthquake activity has been reported nearby.
Minimum magnitude displayed is 2.5.

Coastal Water Temperatures

Place Temperature
No Stations Reporting

Nearby Weather Stations